createdAt,value
2018-06-20T00:00:02.615Z,0
2018-06-20T00:00:28.772Z,0
2018-06-20T00:00:54.936Z,0
2018-06-20T00:01:21.085Z,0
2018-06-20T00:01:47.253Z,0
2018-06-20T00:02:13.389Z,0
2018-06-20T00:02:39.529Z,0
2018-06-20T00:03:05.668Z,0
2018-06-20T00:03:31.832Z,0
2018-06-20T00:03:57.995Z,0
2018-06-20T00:04:24.138Z,0
2018-06-20T00:04:50.302Z,0
2018-06-20T00:05:16.444Z,0
2018-06-20T00:05:42.574Z,0
2018-06-20T00:06:08.724Z,0
2018-06-20T00:06:34.867Z,0
2018-06-20T00:07:01.011Z,0
2018-06-20T00:07:27.234Z,0
2018-06-20T00:07:53.325Z,0
2018-06-20T00:08:19.457Z,0
2018-06-20T00:08:45.626Z,0
2018-06-20T00:09:11.788Z,0
2018-06-20T00:09:37.922Z,0
2018-06-20T00:10:04.060Z,0
2018-06-20T00:10:30.194Z,0
2018-06-20T00:10:56.346Z,0
2018-06-20T00:11:22.508Z,0
2018-06-20T00:11:48.673Z,0
2018-06-20T00:12:14.835Z,0
2018-06-20T00:12:40.975Z,0
2018-06-20T00:13:07.111Z,0
2018-06-20T00:13:33.279Z,0
2018-06-20T00:13:59.447Z,0
2018-06-20T00:14:25.588Z,0
2018-06-20T00:14:51.721Z,0
2018-06-20T00:15:17.902Z,0
2018-06-20T00:15:44.071Z,0
2018-06-20T00:16:10.211Z,0
2018-06-20T00:16:36.359Z,0
2018-06-20T00:17:02.498Z,0
2018-06-20T00:17:28.631Z,0
2018-06-20T00:17:54.774Z,0
2018-06-20T00:18:20.916Z,0
2018-06-20T00:18:47.054Z,0
2018-06-20T00:19:13.223Z,0
2018-06-20T00:19:39.389Z,0
2018-06-20T00:20:05.533Z,0
2018-06-20T00:20:31.669Z,0
2018-06-20T00:20:57.806Z,0
2018-06-20T00:21:23.957Z,0
2018-06-20T00:21:50.099Z,0
2018-06-20T00:22:16.241Z,0
2018-06-20T00:22:42.385Z,0
2018-06-20T00:23:08.527Z,0
2018-06-20T00:23:34.697Z,0
2018-06-20T00:24:00.835Z,0
2018-06-20T00:24:26.974Z,0
2018-06-20T00:24:53.116Z,0
2018-06-20T00:25:19.279Z,0
2018-06-20T00:25:45.424Z,0
2018-06-20T00:26:11.568Z,0
2018-06-20T00:26:37.727Z,0
2018-06-20T00:27:03.858Z,0
2018-06-20T00:27:29.997Z,0
2018-06-20T00:27:56.162Z,0
2018-06-20T00:28:22.304Z,0
2018-06-20T00:28:48.449Z,0
2018-06-20T00:29:14.591Z,0
2018-06-20T00:29:40.754Z,0
2018-06-20T00:30:06.895Z,0
2018-06-20T00:30:33.061Z,0
2018-06-20T00:30:59.226Z,0
2018-06-20T00:31:25.398Z,0
2018-06-20T00:31:51.514Z,0
2018-06-20T00:32:17.649Z,0
2018-06-20T00:32:43.790Z,0
2018-06-20T00:33:09.925Z,0
2018-06-20T00:33:36.065Z,0
2018-06-20T00:34:02.209Z,0
2018-06-20T00:34:28.345Z,0
2018-06-20T00:34:54.483Z,0
2018-06-20T00:35:20.622Z,0
2018-06-20T00:35:46.763Z,0
2018-06-20T00:36:12.904Z,0
2018-06-20T00:36:39.043Z,0
2018-06-20T00:37:05.209Z,0
2018-06-20T00:37:31.353Z,0
2018-06-20T00:37:57.515Z,0
2018-06-20T00:38:23.653Z,0
2018-06-20T00:38:49.804Z,0
2018-06-20T00:39:15.966Z,0
2018-06-20T00:39:42.103Z,0
2018-06-20T00:40:08.235Z,0
2018-06-20T00:40:34.382Z,0
2018-06-20T00:41:00.524Z,0
2018-06-20T00:41:26.693Z,0
2018-06-20T00:41:52.853Z,0
2018-06-20T00:42:19.021Z,0
2018-06-20T00:42:45.165Z,0
2018-06-20T00:43:11.361Z,0
2018-06-20T00:43:37.511Z,0
2018-06-20T00:44:03.655Z,0
2018-06-20T00:44:29.848Z,0
2018-06-20T00:44:55.983Z,0
2018-06-20T00:45:22.121Z,0
2018-06-20T00:45:48.265Z,0
2018-06-20T00:46:14.400Z,0
2018-06-20T00:46:40.571Z,0
2018-06-20T00:47:06.713Z,0
2018-06-20T00:47:32.848Z,0
2018-06-20T00:47:59.007Z,0
2018-06-20T00:48:25.146Z,0
2018-06-20T00:48:51.291Z,0
2018-06-20T00:49:17.475Z,0
2018-06-20T00:49:43.619Z,0
2018-06-20T00:50:09.757Z,0
2018-06-20T00:50:35.921Z,0
2018-06-20T00:51:02.058Z,0
2018-06-20T00:51:28.201Z,0
2018-06-20T00:51:54.339Z,0
2018-06-20T00:52:20.481Z,0
2018-06-20T00:52:46.620Z,0
2018-06-20T00:53:12.781Z,0
2018-06-20T00:53:38.923Z,0
2018-06-20T00:54:05.067Z,0
2018-06-20T00:54:31.228Z,0
2018-06-20T00:54:57.366Z,0
2018-06-20T00:55:23.537Z,0
2018-06-20T00:55:49.708Z,0
2018-06-20T00:56:15.844Z,0
2018-06-20T00:56:41.990Z,0
2018-06-20T00:57:08.129Z,0
2018-06-20T00:57:34.271Z,0
2018-06-20T00:58:00.409Z,0
2018-06-20T00:58:26.552Z,0
2018-06-20T00:58:52.693Z,0
2018-06-20T00:59:18.834Z,0
2018-06-20T00:59:44.975Z,0
2018-06-20T01:00:11.114Z,0
2018-06-20T01:00:37.253Z,0
2018-06-20T01:01:03.395Z,0
2018-06-20T01:01:29.538Z,0
2018-06-20T01:01:55.695Z,0
2018-06-20T01:02:21.838Z,0
2018-06-20T01:02:47.980Z,0
2018-06-20T01:03:14.124Z,0
2018-06-20T01:03:40.257Z,0
2018-06-20T01:04:06.398Z,0
2018-06-20T01:04:32.530Z,0
2018-06-20T01:04:58.677Z,0
2018-06-20T01:05:24.815Z,0
2018-06-20T01:05:50.953Z,0
2018-06-20T01:06:17.091Z,0
2018-06-20T01:06:43.265Z,0
2018-06-20T01:07:09.409Z,0
2018-06-20T01:07:35.574Z,0
2018-06-20T01:08:01.720Z,0
2018-06-20T01:08:27.860Z,0
2018-06-20T01:08:54.003Z,0
2018-06-20T01:09:20.165Z,0
2018-06-20T01:09:46.310Z,0
2018-06-20T01:10:12.500Z,0
2018-06-20T01:10:38.640Z,0
2018-06-20T01:11:04.786Z,0
2018-06-20T01:11:30.979Z,0
2018-06-20T01:11:57.162Z,0
2018-06-20T01:12:23.220Z,0
2018-06-20T01:12:49.362Z,0
2018-06-20T01:13:15.503Z,0
2018-06-20T01:13:41.642Z,0
2018-06-20T01:14:07.782Z,0
2018-06-20T01:14:33.926Z,0
2018-06-20T01:15:00.098Z,0
2018-06-20T01:15:26.248Z,0
2018-06-20T01:15:52.384Z,0
2018-06-20T01:16:18.548Z,0
2018-06-20T01:16:44.693Z,0
2018-06-20T01:17:10.836Z,0
2018-06-20T01:17:36.979Z,0
2018-06-20T01:18:03.135Z,0
2018-06-20T01:18:29.292Z,0
2018-06-20T01:18:55.435Z,0
2018-06-20T01:19:21.577Z,0
2018-06-20T01:19:47.745Z,0
2018-06-20T01:20:13.881Z,0
2018-06-20T01:20:40.020Z,0
2018-06-20T01:21:06.183Z,0
2018-06-20T01:21:32.348Z,0
2018-06-20T01:21:58.492Z,0
2018-06-20T01:22:24.631Z,0
2018-06-20T01:22:50.762Z,0
2018-06-20T01:23:16.908Z,0
2018-06-20T01:23:43.054Z,0
2018-06-20T01:24:09.191Z,0
2018-06-20T01:24:35.330Z,0
2018-06-20T01:25:01.474Z,0
2018-06-20T01:25:27.618Z,0
2018-06-20T01:25:53.763Z,0
2018-06-20T01:26:19.921Z,0
2018-06-20T01:26:46.067Z,0
2018-06-20T01:27:12.240Z,0
2018-06-20T01:27:38.386Z,0
2018-06-20T01:28:04.521Z,0
2018-06-20T01:28:30.662Z,0
2018-06-20T01:28:56.800Z,0
2018-06-20T01:29:22.966Z,0
2018-06-20T01:29:49.104Z,0
2018-06-20T01:30:15.246Z,0
2018-06-20T01:30:41.379Z,0
2018-06-20T01:31:07.546Z,0
2018-06-20T01:31:33.712Z,0
2018-06-20T01:31:59.852Z,0
2018-06-20T01:32:25.997Z,0
2018-06-20T01:32:52.134Z,0
2018-06-20T01:33:18.277Z,0
2018-06-20T01:33:44.413Z,0
2018-06-20T01:34:10.550Z,0
2018-06-20T01:34:36.713Z,0
2018-06-20T01:35:02.854Z,0
2018-06-20T01:35:28.996Z,0
2018-06-20T01:35:55.137Z,0
2018-06-20T01:36:21.266Z,0
2018-06-20T01:36:47.408Z,0
2018-06-20T01:37:13.550Z,0
2018-06-20T01:37:39.683Z,0
2018-06-20T01:38:05.826Z,0
2018-06-20T01:38:31.961Z,0
2018-06-20T01:38:58.103Z,0
2018-06-20T01:39:24.246Z,0
2018-06-20T01:39:50.402Z,0
2018-06-20T01:40:16.540Z,0
2018-06-20T01:40:42.679Z,0
2018-06-20T01:41:08.827Z,0
2018-06-20T01:41:34.983Z,0
2018-06-20T01:42:01.129Z,0
2018-06-20T01:42:27.298Z,0
2018-06-20T01:42:53.441Z,0
2018-06-20T01:43:19.578Z,0
2018-06-20T01:43:45.738Z,0
2018-06-20T01:44:11.873Z,0
2018-06-20T01:44:38.014Z,0
2018-06-20T01:45:04.153Z,0
2018-06-20T01:45:30.287Z,0
2018-06-20T01:45:56.429Z,0
2018-06-20T01:46:22.566Z,0
2018-06-20T01:46:48.709Z,0
2018-06-20T01:47:14.846Z,0
2018-06-20T01:47:40.988Z,0
2018-06-20T01:48:07.138Z,0
2018-06-20T01:48:33.272Z,0
2018-06-20T01:48:59.407Z,0
2018-06-20T01:49:25.549Z,0
2018-06-20T01:49:51.680Z,0
2018-06-20T01:50:17.818Z,0
2018-06-20T01:50:43.955Z,0
2018-06-20T01:51:10.172Z,0
2018-06-20T01:51:36.313Z,0
2018-06-20T01:52:02.456Z,0
2018-06-20T01:52:28.595Z,0
2018-06-20T01:52:54.728Z,0
2018-06-20T01:53:20.874Z,0
2018-06-20T01:53:47.034Z,0
2018-06-20T01:54:13.175Z,0
2018-06-20T01:54:39.434Z,0
2018-06-20T01:55:05.593Z,0
2018-06-20T01:55:31.824Z,0
2018-06-20T01:55:57.978Z,0
2018-06-20T01:56:24.123Z,0
2018-06-20T01:56:50.270Z,0
2018-06-20T01:57:16.431Z,0
2018-06-20T01:57:42.567Z,0
2018-06-20T01:58:08.708Z,0
2018-06-20T01:58:34.851Z,0
2018-06-20T01:59:01.011Z,0
2018-06-20T01:59:27.152Z,0
2018-06-20T01:59:53.298Z,0
2018-06-20T02:00:19.431Z,0
2018-06-20T02:00:45.574Z,0
2018-06-20T02:01:11.714Z,0
2018-06-20T02:01:37.857Z,0
2018-06-20T02:02:03.999Z,0
2018-06-20T02:02:30.170Z,0
2018-06-20T02:02:56.333Z,0
2018-06-20T02:03:22.491Z,0
2018-06-20T02:03:48.628Z,0
2018-06-20T02:04:14.767Z,0
2018-06-20T02:04:40.922Z,0
2018-06-20T02:05:07.090Z,0
2018-06-20T02:05:33.265Z,0
2018-06-20T02:05:59.418Z,0
2018-06-20T02:06:25.559Z,0
2018-06-20T02:06:51.701Z,0
2018-06-20T02:07:17.863Z,0
2018-06-20T02:07:44.007Z,0
2018-06-20T02:08:10.144Z,0
2018-06-20T02:08:36.286Z,0
2018-06-20T02:09:02.431Z,0
2018-06-20T02:09:28.569Z,0
2018-06-20T02:09:54.707Z,0
2018-06-20T02:10:20.856Z,0
2018-06-20T02:10:47.016Z,0
2018-06-20T02:11:13.158Z,0
2018-06-20T02:11:39.321Z,0
2018-06-20T02:12:05.452Z,0
2018-06-20T02:12:31.588Z,0
2018-06-20T02:12:57.738Z,0
2018-06-20T02:13:23.899Z,0
2018-06-20T02:13:50.038Z,0
2018-06-20T02:14:16.172Z,0
2018-06-20T02:14:42.311Z,0
2018-06-20T02:15:08.481Z,0
2018-06-20T02:15:34.622Z,0
2018-06-20T02:16:00.767Z,0
2018-06-20T02:16:26.911Z,0
2018-06-20T02:16:53.054Z,0
2018-06-20T02:17:19.194Z,0
2018-06-20T02:17:45.336Z,0
2018-06-20T02:18:11.496Z,0
2018-06-20T02:18:37.636Z,0
2018-06-20T02:19:03.774Z,0
2018-06-20T02:19:29.911Z,0
2018-06-20T02:19:56.073Z,0
2018-06-20T02:20:22.226Z,0
2018-06-20T02:20:48.369Z,0
2018-06-20T02:21:14.512Z,0
2018-06-20T02:21:40.679Z,0
2018-06-20T02:22:06.821Z,0
2018-06-20T02:22:32.963Z,0
2018-06-20T02:22:59.100Z,0
2018-06-20T02:23:25.264Z,0
2018-06-20T02:23:51.421Z,0
2018-06-20T02:24:17.563Z,0
2018-06-20T02:24:43.701Z,0
2018-06-20T02:25:09.846Z,0
2018-06-20T02:25:35.991Z,0
2018-06-20T02:26:02.127Z,0
2018-06-20T02:26:28.267Z,0
2018-06-20T02:26:54.408Z,0
2018-06-20T02:27:20.545Z,0
2018-06-20T02:27:46.714Z,4
2018-06-20T02:28:12.862Z,4
2018-06-20T02:28:39.000Z,4
2018-06-20T02:29:05.139Z,4
2018-06-20T02:29:31.281Z,4
2018-06-20T02:29:57.429Z,4
2018-06-20T02:30:23.590Z,4
2018-06-20T02:30:49.760Z,0
2018-06-20T02:31:15.940Z,0
2018-06-20T02:31:42.124Z,0
2018-06-20T02:32:08.266Z,4
2018-06-20T02:32:34.424Z,4
2018-06-20T02:33:00.582Z,4
2018-06-20T02:33:26.824Z,4
2018-06-20T02:33:52.959Z,4
2018-06-20T02:34:19.106Z,4
2018-06-20T02:34:45.276Z,4
2018-06-20T02:35:11.470Z,4
2018-06-20T02:35:37.645Z,4
2018-06-20T02:36:03.787Z,4
2018-06-20T02:36:29.953Z,4
2018-06-20T02:36:56.091Z,8
2018-06-20T02:37:22.262Z,8
2018-06-20T02:37:48.431Z,4
2018-06-20T02:38:14.588Z,4
2018-06-20T02:38:40.755Z,8
2018-06-20T02:39:06.888Z,8
2018-06-20T02:39:33.038Z,8
2018-06-20T02:39:59.215Z,4
2018-06-20T02:40:25.405Z,8
2018-06-20T02:40:51.557Z,8
2018-06-20T02:41:17.685Z,8
2018-06-20T02:41:43.899Z,8
2018-06-20T02:42:10.041Z,8
2018-06-20T02:42:36.200Z,8
2018-06-20T02:43:02.393Z,12
2018-06-20T02:43:28.550Z,12
2018-06-20T02:43:54.715Z,8
2018-06-20T02:44:20.883Z,12
2018-06-20T02:44:47.018Z,12
2018-06-20T02:45:13.176Z,12
2018-06-20T02:45:39.317Z,12
2018-06-20T02:46:05.453Z,16
2018-06-20T02:46:31.593Z,12
2018-06-20T02:46:57.762Z,16
2018-06-20T02:47:23.950Z,16
2018-06-20T02:47:50.100Z,16
2018-06-20T02:48:16.239Z,16
2018-06-20T02:48:42.398Z,16
2018-06-20T02:49:08.587Z,16
2018-06-20T02:49:34.743Z,20
2018-06-20T02:50:00.888Z,16
2018-06-20T02:50:27.072Z,20
2018-06-20T02:50:53.235Z,20
2018-06-20T02:51:19.401Z,20
2018-06-20T02:51:45.572Z,24
2018-06-20T02:52:11.708Z,20
2018-06-20T02:52:37.922Z,24
2018-06-20T02:53:04.074Z,24
2018-06-20T02:53:30.241Z,24
2018-06-20T02:53:56.380Z,28
2018-06-20T02:54:22.561Z,24
2018-06-20T02:54:48.724Z,28
2018-06-20T02:55:14.867Z,32
2018-06-20T02:55:41.054Z,28
2018-06-20T02:56:07.215Z,32
2018-06-20T02:56:33.378Z,32
2018-06-20T02:56:59.561Z,32
2018-06-20T02:57:25.721Z,36
2018-06-20T02:57:51.884Z,32
2018-06-20T02:58:18.069Z,36
2018-06-20T02:58:44.280Z,36
2018-06-20T02:59:10.418Z,36
2018-06-20T02:59:36.557Z,36
2018-06-20T03:00:02.710Z,36
2018-06-20T03:00:28.896Z,40
2018-06-20T03:00:55.148Z,44
2018-06-20T03:01:21.413Z,48
2018-06-20T03:01:47.735Z,44
2018-06-20T03:02:14.061Z,48
2018-06-20T03:02:40.343Z,52
2018-06-20T03:03:06.749Z,56
2018-06-20T03:03:32.912Z,60
2018-06-20T03:03:59.155Z,60
2018-06-20T03:04:25.360Z,60
2018-06-20T03:04:51.556Z,64
2018-06-20T03:05:17.884Z,64
2018-06-20T03:05:44.312Z,68
2018-06-20T03:06:10.475Z,68
2018-06-20T03:06:36.689Z,68
2018-06-20T03:07:02.830Z,68
2018-06-20T03:07:28.990Z,68
2018-06-20T03:07:55.135Z,68
2018-06-20T03:08:21.276Z,68
2018-06-20T03:08:47.433Z,68
2018-06-20T03:09:13.565Z,72
2018-06-20T03:09:39.706Z,72
2018-06-20T03:10:05.894Z,72
2018-06-20T03:10:32.041Z,76
2018-06-20T03:10:58.232Z,80
2018-06-20T03:11:24.386Z,76
2018-06-20T03:11:50.519Z,80
2018-06-20T03:12:16.684Z,80
2018-06-20T03:12:42.850Z,80
2018-06-20T03:13:09.028Z,80
2018-06-20T03:13:35.172Z,80
2018-06-20T03:14:01.308Z,80
2018-06-20T03:14:27.448Z,84
2018-06-20T03:14:53.650Z,84
2018-06-20T03:15:19.792Z,88
2018-06-20T03:15:45.952Z,92
2018-06-20T03:16:12.146Z,96
2018-06-20T03:16:38.307Z,100
2018-06-20T03:17:04.451Z,104
2018-06-20T03:17:30.605Z,108
2018-06-20T03:17:56.742Z,116
2018-06-20T03:18:22.930Z,120
2018-06-20T03:18:49.087Z,124
2018-06-20T03:19:15.281Z,128
2018-06-20T03:19:41.426Z,136
2018-06-20T03:20:07.590Z,140
2018-06-20T03:20:33.734Z,148
2018-06-20T03:20:59.922Z,152
2018-06-20T03:21:26.061Z,156
2018-06-20T03:21:52.199Z,160
2018-06-20T03:22:18.364Z,168
2018-06-20T03:22:44.510Z,172
2018-06-20T03:23:10.655Z,176
2018-06-20T03:23:36.793Z,180
2018-06-20T03:24:02.935Z,184
2018-06-20T03:24:29.077Z,188
2018-06-20T03:24:55.212Z,192
2018-06-20T03:25:21.374Z,192
2018-06-20T03:25:47.540Z,196
2018-06-20T03:26:13.677Z,200
2018-06-20T03:26:39.817Z,204
2018-06-20T03:27:05.987Z,208
2018-06-20T03:27:32.159Z,216
2018-06-20T03:27:58.298Z,228
2018-06-20T03:28:24.444Z,240
2018-06-20T03:28:50.577Z,248
2018-06-20T03:29:16.719Z,260
2018-06-20T03:29:42.862Z,272
2018-06-20T03:30:09.026Z,284
2018-06-20T03:30:35.211Z,296
2018-06-20T03:31:01.405Z,304
2018-06-20T03:31:27.617Z,312
2018-06-20T03:31:53.776Z,320
2018-06-20T03:32:19.962Z,328
2018-06-20T03:32:46.100Z,336
2018-06-20T03:33:12.243Z,340
2018-06-20T03:33:38.414Z,344
2018-06-20T03:34:04.578Z,348
2018-06-20T03:34:30.748Z,352
2018-06-20T03:34:56.882Z,356
2018-06-20T03:35:23.023Z,356
2018-06-20T03:35:49.162Z,360
2018-06-20T03:36:15.309Z,360
2018-06-20T03:36:41.449Z,364
2018-06-20T03:37:07.589Z,368
2018-06-20T03:37:33.728Z,372
2018-06-20T03:37:59.870Z,376
2018-06-20T03:38:26.010Z,380
2018-06-20T03:38:52.144Z,388
2018-06-20T03:39:18.339Z,400
2018-06-20T03:39:44.503Z,408
2018-06-20T03:40:10.647Z,420
2018-06-20T03:40:36.783Z,428
2018-06-20T03:41:02.932Z,436
2018-06-20T03:41:29.094Z,444
2018-06-20T03:41:55.238Z,452
2018-06-20T03:42:21.402Z,460
2018-06-20T03:42:47.570Z,460
2018-06-20T03:43:13.699Z,460
2018-06-20T03:43:39.850Z,468
2018-06-20T03:44:05.989Z,468
2018-06-20T03:44:32.148Z,468
2018-06-20T03:44:58.290Z,468
2018-06-20T03:45:24.424Z,468
2018-06-20T03:45:50.566Z,468
2018-06-20T03:46:16.702Z,468
2018-06-20T03:46:42.844Z,468
2018-06-20T03:47:09.024Z,468
2018-06-20T03:47:35.165Z,468
2018-06-20T03:48:01.309Z,468
2018-06-20T03:48:27.468Z,472
2018-06-20T03:48:53.634Z,476
2018-06-20T03:49:19.777Z,484
2018-06-20T03:49:45.911Z,488
2018-06-20T03:50:12.111Z,496
2018-06-20T03:50:38.244Z,504
2018-06-20T03:51:04.392Z,512
2018-06-20T03:51:30.557Z,520
2018-06-20T03:51:56.694Z,528
2018-06-20T03:52:22.858Z,536
2018-06-20T03:52:49.000Z,540
2018-06-20T03:53:15.160Z,548
2018-06-20T03:53:41.333Z,560
2018-06-20T03:54:07.489Z,572
2018-06-20T03:54:33.626Z,584
2018-06-20T03:54:59.766Z,600
2018-06-20T03:55:25.952Z,616
2018-06-20T03:55:52.093Z,636
2018-06-20T03:56:18.234Z,652
2018-06-20T03:56:44.373Z,668
2018-06-20T03:57:10.514Z,684
2018-06-20T03:57:36.647Z,700
2018-06-20T03:58:02.784Z,712
2018-06-20T03:58:28.950Z,720
2018-06-20T03:58:55.090Z,728
2018-06-20T03:59:21.249Z,728
2018-06-20T03:59:47.411Z,732
2018-06-20T04:00:13.598Z,728
2018-06-20T04:00:39.732Z,720
2018-06-20T04:01:05.876Z,708
2018-06-20T04:01:32.016Z,700
2018-06-20T04:01:58.152Z,696
2018-06-20T04:02:24.372Z,692
2018-06-20T04:02:50.492Z,688
2018-06-20T04:03:16.635Z,692
2018-06-20T04:03:42.773Z,700
2018-06-20T04:04:08.917Z,708
2018-06-20T04:04:35.058Z,724
2018-06-20T04:05:01.210Z,744
2018-06-20T04:05:27.341Z,760
2018-06-20T04:05:53.481Z,772
2018-06-20T04:06:19.642Z,788
2018-06-20T04:06:45.783Z,808
2018-06-20T04:07:11.925Z,820
2018-06-20T04:07:38.063Z,836
2018-06-20T04:08:04.221Z,852
2018-06-20T04:08:30.361Z,860
2018-06-20T04:08:56.501Z,880
2018-06-20T04:09:22.646Z,892
2018-06-20T04:09:48.808Z,912
2018-06-20T04:10:14.943Z,932
2018-06-20T04:10:41.088Z,948
2018-06-20T04:11:07.229Z,972
2018-06-20T04:11:33.390Z,996
2018-06-20T04:11:59.524Z,1028
2018-06-20T04:12:25.664Z,1056
2018-06-20T04:12:51.806Z,1084
2018-06-20T04:13:17.975Z,1108
2018-06-20T04:13:44.113Z,1128
2018-06-20T04:14:10.278Z,1140
2018-06-20T04:14:36.416Z,1152
2018-06-20T04:15:02.556Z,1160
2018-06-20T04:15:28.699Z,1172
2018-06-20T04:15:54.859Z,1180
2018-06-20T04:16:20.993Z,1184
2018-06-20T04:16:47.133Z,1192
2018-06-20T04:17:13.272Z,1204
2018-06-20T04:17:39.410Z,1216
2018-06-20T04:18:05.578Z,1228
2018-06-20T04:18:31.742Z,1252
2018-06-20T04:18:57.884Z,1272
2018-06-20T04:19:24.046Z,1296
2018-06-20T04:19:50.210Z,1324
2018-06-20T04:20:16.354Z,1352
2018-06-20T04:20:42.485Z,1380
2018-06-20T04:21:08.625Z,1404
2018-06-20T04:21:34.786Z,1428
2018-06-20T04:22:00.956Z,1452
2018-06-20T04:22:27.143Z,1464
2018-06-20T04:22:53.307Z,1464
2018-06-20T04:23:19.441Z,1456
2018-06-20T04:23:45.607Z,1432
2018-06-20T04:24:11.748Z,1408
2018-06-20T04:24:37.886Z,1380
2018-06-20T04:25:04.030Z,1352
2018-06-20T04:25:30.192Z,1332
2018-06-20T04:25:56.333Z,1316
2018-06-20T04:26:22.492Z,1304
2018-06-20T04:26:48.636Z,1304
2018-06-20T04:27:14.774Z,1304
2018-06-20T04:27:40.967Z,1316
2018-06-20T04:28:07.205Z,1340
2018-06-20T04:28:33.248Z,1380
2018-06-20T04:28:59.381Z,1436
2018-06-20T04:29:25.527Z,1500
2018-06-20T04:29:51.666Z,1584
2018-06-20T04:30:17.801Z,1676
2018-06-20T04:30:43.943Z,1780
2018-06-20T04:31:10.082Z,1884
2018-06-20T04:31:36.220Z,2004
2018-06-20T04:32:02.369Z,2128
2018-06-20T04:32:28.564Z,2248
2018-06-20T04:32:54.714Z,2368
2018-06-20T04:33:20.854Z,2484
2018-06-20T04:33:46.994Z,2600
2018-06-20T04:34:13.127Z,2712
2018-06-20T04:34:39.305Z,2820
2018-06-20T04:35:05.429Z,2928
2018-06-20T04:35:31.565Z,3032
2018-06-20T04:35:57.709Z,3132
2018-06-20T04:36:23.848Z,3236
2018-06-20T04:36:50.006Z,3332
2018-06-20T04:37:16.139Z,3428
2018-06-20T04:37:42.285Z,3524
2018-06-20T04:38:08.415Z,3624
2018-06-20T04:38:34.582Z,3716
2018-06-20T04:39:00.728Z,3804
2018-06-20T04:39:26.866Z,3880
2018-06-20T04:39:52.998Z,3960
2018-06-20T04:40:19.141Z,4036
2018-06-20T04:40:45.278Z,4100
2018-06-20T04:41:11.473Z,4160
2018-06-20T04:41:37.635Z,4224
2018-06-20T04:42:03.781Z,4296
2018-06-20T04:42:29.925Z,4368
2018-06-20T04:42:56.060Z,4444
2018-06-20T04:43:22.224Z,4520
2018-06-20T04:43:48.363Z,4592
2018-06-20T04:44:14.499Z,4664
2018-06-20T04:44:40.719Z,4728
2018-06-20T04:45:06.841Z,4776
2018-06-20T04:45:32.998Z,4808
2018-06-20T04:45:59.131Z,4828
2018-06-20T04:46:25.295Z,4864
2018-06-20T04:46:51.440Z,4920
2018-06-20T04:47:17.581Z,4988
2018-06-20T04:47:43.718Z,5068
2018-06-20T04:48:09.860Z,5160
2018-06-20T04:48:36.001Z,5244
2018-06-20T04:49:02.146Z,5340
2018-06-20T04:49:28.290Z,5436
2018-06-20T04:49:54.445Z,5552
2018-06-20T04:50:20.597Z,5680
2018-06-20T04:50:46.735Z,5820
2018-06-20T04:51:12.876Z,5968
2018-06-20T04:51:39.014Z,6112
2018-06-20T04:52:05.153Z,6244
2018-06-20T04:52:31.294Z,6376
2018-06-20T04:52:57.440Z,6524
2018-06-20T04:53:23.630Z,6676
2018-06-20T04:53:49.786Z,6836
2018-06-20T04:54:15.935Z,6992
2018-06-20T04:54:42.076Z,7140
2018-06-20T04:55:08.218Z,7292
2018-06-20T04:55:34.391Z,7452
2018-06-20T04:56:00.522Z,7596
2018-06-20T04:56:26.661Z,7772
2018-06-20T04:56:52.804Z,8088
2018-06-20T04:57:18.948Z,8080
2018-06-20T04:57:45.083Z,8124
2018-06-20T04:58:11.221Z,8220
2018-06-20T04:58:37.361Z,8332
2018-06-20T04:59:03.502Z,8484
2018-06-20T04:59:29.644Z,8724
2018-06-20T04:59:55.808Z,8880
2018-06-20T05:00:21.945Z,8960
2018-06-20T05:00:48.113Z,8652
2018-06-20T05:01:14.250Z,8632
2018-06-20T05:01:40.384Z,8640
2018-06-20T05:02:06.526Z,8872
2018-06-20T05:02:32.683Z,8532
2018-06-20T05:02:58.847Z,8448
2018-06-20T05:03:24.985Z,8468
2018-06-20T05:03:51.123Z,8684
2018-06-20T05:04:17.310Z,8928
2018-06-20T05:04:43.431Z,8756
2018-06-20T05:05:09.565Z,9008
2018-06-20T05:05:35.766Z,10620
2018-06-20T05:06:01.852Z,10316
2018-06-20T05:06:27.986Z,13520
2018-06-20T05:06:54.133Z,12400
2018-06-20T05:07:20.297Z,10904
2018-06-20T05:07:46.493Z,11948
2018-06-20T05:08:12.635Z,14204
2018-06-20T05:08:38.798Z,13404
2018-06-20T05:09:04.941Z,14652
2018-06-20T05:09:31.087Z,13168
2018-06-20T05:09:57.228Z,12984
2018-06-20T05:10:23.371Z,12204
2018-06-20T05:10:49.532Z,16992
2018-06-20T05:11:15.681Z,13700
2018-06-20T05:11:41.825Z,11804
2018-06-20T05:12:07.967Z,13228
2018-06-20T05:12:34.109Z,16256
2018-06-20T05:13:00.245Z,13832
2018-06-20T05:13:26.394Z,15080
2018-06-20T05:13:52.542Z,13392
2018-06-20T05:14:18.678Z,12440
2018-06-20T05:14:44.826Z,12952
2018-06-20T05:15:10.965Z,13196
2018-06-20T05:15:37.121Z,12612
2018-06-20T05:16:03.266Z,12384
2018-06-20T05:16:29.409Z,12264
2018-06-20T05:16:55.543Z,12220
2018-06-20T05:17:21.681Z,12264
2018-06-20T05:17:47.829Z,12520
2018-06-20T05:18:13.966Z,12668
2018-06-20T05:18:40.111Z,12480
2018-06-20T05:19:06.273Z,12620
2018-06-20T05:19:32.411Z,12480
2018-06-20T05:19:58.548Z,12460
2018-06-20T05:20:24.688Z,12568
2018-06-20T05:20:50.861Z,12720
2018-06-20T05:21:17.003Z,12916
2018-06-20T05:21:43.170Z,13592
2018-06-20T05:22:09.310Z,13812
2018-06-20T05:22:35.456Z,13652
2018-06-20T05:23:01.595Z,13652
2018-06-20T05:23:27.737Z,13428
2018-06-20T05:23:53.878Z,13164
2018-06-20T05:24:20.027Z,12556
2018-06-20T05:24:46.169Z,12656
2018-06-20T05:25:12.314Z,12308
2018-06-20T05:25:38.456Z,12272
2018-06-20T05:26:04.591Z,11996
2018-06-20T05:26:30.733Z,11732
2018-06-20T05:26:56.871Z,11600
2018-06-20T05:27:23.016Z,11628
2018-06-20T05:27:49.157Z,11904
2018-06-20T05:28:15.293Z,11692
2018-06-20T05:28:41.457Z,11824
2018-06-20T05:29:07.598Z,12072
2018-06-20T05:29:33.755Z,12400
2018-06-20T05:29:59.879Z,12688
2018-06-20T05:30:26.030Z,12948
2018-06-20T05:30:52.171Z,13264
2018-06-20T05:31:18.310Z,13732
2018-06-20T05:31:44.473Z,13648
2018-06-20T05:32:10.614Z,13932
2018-06-20T05:32:36.753Z,14116
2018-06-20T05:33:02.895Z,14052
2018-06-20T05:33:29.032Z,13776
2018-06-20T05:33:55.169Z,13604
2018-06-20T05:34:21.344Z,13112
2018-06-20T05:34:47.533Z,12860
2018-06-20T05:35:13.703Z,12828
2018-06-20T05:35:39.900Z,12900
2018-06-20T05:36:06.035Z,13032
2018-06-20T05:36:32.174Z,13072
2018-06-20T05:36:58.358Z,13308
2018-06-20T05:37:24.501Z,13680
2018-06-20T05:37:50.636Z,14180
2018-06-20T05:38:16.777Z,14480
2018-06-20T05:38:42.918Z,14800
2018-06-20T05:39:09.058Z,15200
2018-06-20T05:39:35.194Z,15632
2018-06-20T05:40:01.342Z,16120
2018-06-20T05:40:27.477Z,16336
2018-06-20T05:40:53.613Z,16312
2018-06-20T05:41:19.806Z,16408
2018-06-20T05:41:46.009Z,16228
2018-06-20T05:42:12.090Z,15996
2018-06-20T05:42:38.232Z,15440
2018-06-20T05:43:04.377Z,15008
2018-06-20T05:43:30.514Z,14760
2018-06-20T05:43:56.680Z,14572
2018-06-20T05:44:22.820Z,14408
2018-06-20T05:44:48.960Z,14288
2018-06-20T05:45:15.128Z,14208
2018-06-20T05:45:41.265Z,14252
2018-06-20T05:46:07.435Z,14356
2018-06-20T05:46:33.577Z,14496
2018-06-20T05:46:59.722Z,14676
2018-06-20T05:47:25.889Z,14836
2018-06-20T05:47:52.024Z,15060
2018-06-20T05:48:18.170Z,15448
2018-06-20T05:48:44.333Z,15920
2018-06-20T05:49:10.520Z,16476
2018-06-20T05:49:36.664Z,16804
2018-06-20T05:50:02.820Z,17312
2018-06-20T05:50:28.987Z,17344
2018-06-20T05:50:55.122Z,17248
2018-06-20T05:51:21.263Z,16768
2018-06-20T05:51:47.411Z,16156
2018-06-20T05:52:13.554Z,15276
2018-06-20T05:52:39.701Z,14280
2018-06-20T05:53:05.865Z,13432
2018-06-20T05:53:32.004Z,12732
2018-06-20T05:53:58.255Z,12516
2018-06-20T05:54:24.347Z,12696
2018-06-20T05:54:50.487Z,13108
2018-06-20T05:55:16.627Z,13580
2018-06-20T05:55:42.770Z,14056
2018-06-20T05:56:08.910Z,14516
2018-06-20T05:56:35.056Z,15044
2018-06-20T05:57:01.202Z,15788
2018-06-20T05:57:27.342Z,16456
2018-06-20T05:57:53.505Z,17340
2018-06-20T05:58:19.652Z,18656
2018-06-20T05:58:45.796Z,19328
2018-06-20T05:59:11.932Z,20000
2018-06-20T05:59:38.090Z,20288
2018-06-20T06:00:04.264Z,20352
2018-06-20T06:00:30.405Z,20416
2018-06-20T06:00:56.543Z,20640
2018-06-20T06:01:22.686Z,21056
2018-06-20T06:01:48.824Z,21760
2018-06-20T06:02:14.966Z,22528
2018-06-20T06:02:41.114Z,23296
2018-06-20T06:03:07.269Z,24000
2018-06-20T06:03:33.456Z,24672
2018-06-20T06:03:59.605Z,25280
2018-06-20T06:04:25.744Z,25440
2018-06-20T06:04:51.886Z,25504
2018-06-20T06:05:18.067Z,25088
2018-06-20T06:05:44.234Z,24672
2018-06-20T06:06:10.373Z,24288